createdAt,value
2022-12-01T00:03:25.608Z,11.55
2022-12-01T00:08:28.759Z,18.58
2022-12-01T00:13:30.786Z,12.93
2022-12-01T00:18:32.805Z,12.83
2022-12-01T00:23:34.818Z,12.32
2022-12-01T00:28:36.814Z,11.10
2022-12-01T00:33:39.703Z,9.90
2022-12-01T00:38:42.052Z,10.35
2022-12-01T00:43:44.045Z,10.45
2022-12-01T00:48:46.114Z,9.60
2022-12-01T00:53:48.116Z,8.70
2022-12-01T00:58:50.122Z,11.30
2022-12-01T01:03:52.125Z,11.30
2022-12-01T01:08:54.146Z,9.97
2022-12-01T01:13:56.175Z,10.73
2022-12-01T01:18:58.400Z,11.07
2022-12-01T01:24:00.462Z,10.43
2022-12-01T01:29:04.699Z,11.02
2022-12-01T01:34:06.745Z,10.60
2022-12-01T01:39:08.776Z,10.30
2022-12-01T01:44:48.329Z,10.57
2022-12-01T01:49:50.738Z,10.02
2022-12-01T01:54:55.702Z,10.07
2022-12-01T02:00:11.970Z,11.07
2022-12-01T02:05:20.333Z,9.73
2022-12-01T02:10:28.240Z,9.95
2022-12-01T02:16:08.834Z,8.80
2022-12-01T02:21:37.112Z,9.55
2022-12-01T02:26:49.118Z,9.57
2022-12-01T02:32:06.311Z,10.43
2022-12-01T02:37:29.458Z,10.73
2022-12-01T02:43:02.238Z,10.68
2022-12-01T02:48:11.151Z,9.87
2022-12-01T02:53:17.403Z,10.23
2022-12-01T02:58:20.499Z,10.88
2022-12-01T03:03:37.689Z,10.35
2022-12-01T03:08:56.503Z,10.30
2022-12-01T03:14:31.280Z,9.90
2022-12-01T03:19:43.691Z,10.88
2022-12-01T03:24:49.397Z,10.27
2022-12-01T03:29:55.782Z,9.93
2022-12-01T03:35:04.802Z,9.20
2022-12-01T03:40:12.156Z,9.47
2022-12-01T03:45:24.596Z,10.53
2022-12-01T03:50:40.895Z,9.95
2022-12-01T03:55:46.729Z,9.00
2022-12-01T04:00:53.217Z,9.93
2022-12-01T04:05:55.773Z,9.70
2022-12-01T04:10:57.770Z,9.77
2022-12-01T04:15:59.824Z,10.53
2022-12-01T04:21:01.827Z,10.32
2022-12-01T04:26:05.364Z,11.90
2022-12-01T04:31:07.456Z,15.10
2022-12-01T04:36:10.046Z,11.30
2022-12-01T04:41:13.141Z,10.52
2022-12-01T04:46:15.195Z,10.20
2022-12-01T04:51:17.869Z,12.03
2022-12-01T04:56:20.078Z,10.75
2022-12-01T05:01:22.186Z,10.98
2022-12-01T05:06:27.482Z,13.27
2022-12-01T05:11:30.941Z,12.85
2022-12-01T05:16:34.276Z,10.93
2022-12-01T05:21:36.365Z,11.20
2022-12-01T05:26:38.814Z,10.27
2022-12-01T05:31:42.459Z,10.93
2022-12-01T05:36:44.588Z,11.40
2022-12-01T05:41:46.617Z,11.10
2022-12-01T05:46:48.662Z,11.00
2022-12-01T05:51:50.649Z,11.43
2022-12-01T05:56:52.674Z,11.03
2022-12-01T06:01:54.744Z,11.70
2022-12-01T06:06:57.107Z,11.40
2022-12-01T06:11:59.133Z,12.20
2022-12-01T06:17:01.225Z,13.33
2022-12-01T06:22:04.059Z,14.63
2022-12-01T06:27:06.104Z,14.20
2022-12-01T06:32:08.205Z,15.20
2022-12-01T06:37:11.320Z,16.12
2022-12-01T06:42:13.321Z,15.95
2022-12-01T06:47:16.005Z,15.57
2022-12-01T06:52:18.041Z,14.50
2022-12-01T06:57:20.126Z,15.13
2022-12-01T07:02:22.834Z,13.80
2022-12-01T07:07:24.954Z,15.47
2022-12-01T07:12:31.092Z,14.40
2022-12-01T07:17:33.641Z,15.02
2022-12-01T07:22:36.174Z,14.07
2022-12-01T07:27:38.228Z,15.40
2022-12-01T07:32:40.319Z,15.10
2022-12-01T07:37:42.303Z,14.20
2022-12-01T07:42:44.287Z,15.35
2022-12-01T07:47:46.329Z,15.75
2022-12-01T07:52:51.595Z,13.57
2022-12-01T07:57:53.685Z,13.27
2022-12-01T08:02:55.734Z,13.57
2022-12-01T08:07:59.322Z,16.80
2022-12-01T08:13:01.400Z,13.07
2022-12-01T08:18:03.584Z,14.00
2022-12-01T08:23:05.594Z,13.80
2022-12-01T08:28:07.645Z,14.57
2022-12-01T08:33:09.632Z,17.08
2022-12-01T08:38:12.244Z,17.30
2022-12-01T08:43:34.746Z,14.10
2022-12-01T08:48:36.789Z,13.23
2022-12-01T08:53:45.275Z,13.38
2022-12-01T08:58:48.205Z,13.95
2022-12-01T09:04:05.491Z,13.93
2022-12-01T09:09:11.267Z,14.95
2022-12-01T09:14:15.312Z,15.52
2022-12-01T09:19:24.093Z,14.50
2022-12-01T09:24:27.635Z,14.63
2022-12-01T09:29:30.285Z,14.57
2022-12-01T09:34:32.295Z,14.10
2022-12-01T09:39:34.297Z,14.37
2022-12-01T09:44:55.857Z,14.30
2022-12-01T09:50:36.248Z,15.20
2022-12-01T09:55:39.414Z,15.77
2022-12-01T10:00:43.662Z,13.32
2022-12-01T10:06:26.153Z,12.93
2022-12-01T10:11:39.562Z,13.03
2022-12-01T10:17:05.639Z,12.80
2022-12-01T10:22:26.056Z,11.93
2022-12-01T10:28:19.142Z,13.63
2022-12-01T10:33:25.450Z,12.47
2022-12-01T10:38:36.857Z,12.13
2022-12-01T10:43:42.314Z,10.95
2022-12-01T10:48:56.661Z,11.20
2022-12-01T10:54:06.962Z,10.65
2022-12-01T10:59:40.744Z,10.48
2022-12-01T11:04:50.617Z,11.80
2022-12-01T11:10:06.132Z,11.12
2022-12-01T11:15:17.897Z,10.88
2022-12-01T11:20:35.517Z,11.73
2022-12-01T11:25:38.165Z,10.17
2022-12-01T11:30:40.398Z,10.40
2022-12-01T11:35:48.060Z,10.20
2022-12-01T11:40:55.567Z,10.30
2022-12-01T11:46:02.647Z,11.12
2022-12-01T11:51:16.171Z,10.48
2022-12-01T11:56:28.018Z,9.87
2022-12-01T12:01:55.213Z,8.70
2022-12-01T12:07:10.801Z,9.52
2022-12-01T12:12:24.562Z,9.63
2022-12-01T12:17:26.570Z,9.50
2022-12-01T12:22:34.236Z,10.52
2022-12-01T12:27:46.632Z,9.85
2022-12-01T12:33:13.773Z,9.13
2022-12-01T12:38:40.526Z,9.00
2022-12-01T12:44:04.985Z,8.80
2022-12-01T12:49:36.338Z,9.47
2022-12-01T12:54:57.210Z,8.80
2022-12-01T13:00:21.479Z,8.57
2022-12-01T13:05:27.120Z,8.13
2022-12-01T13:10:31.842Z,8.40
2022-12-01T13:15:36.532Z,8.32
2022-12-01T13:20:38.993Z,7.45
2022-12-01T13:25:42.390Z,8.03
2022-12-01T13:30:58.362Z,7.80
2022-12-01T13:36:38.143Z,9.95
2022-12-01T13:41:35.099Z,8.47
2022-12-01T13:46:37.134Z,7.78
2022-12-01T13:52:17.875Z,7.28
2022-12-01T13:57:27.115Z,7.37
2022-12-01T14:02:34.759Z,7.37
2022-12-01T14:07:38.852Z,8.05
2022-12-01T14:12:45.724Z,7.57
2022-12-01T14:17:57.896Z,7.70
2022-12-01T14:23:18.688Z,8.20
2022-12-01T14:28:55.742Z,9.32
2022-12-01T14:34:12.107Z,8.07
2022-12-01T14:39:24.593Z,8.07
2022-12-01T14:44:44.802Z,8.82
2022-12-01T14:49:46.777Z,9.60
2022-12-01T14:54:49.953Z,9.60
2022-12-01T15:00:13.952Z,9.23
2022-12-01T15:05:18.704Z,8.55
2022-12-01T15:10:34.611Z,8.87
2022-12-01T15:15:37.729Z,8.18
2022-12-01T15:20:46.356Z,8.57
2022-12-01T15:25:49.783Z,9.20
2022-12-01T15:30:54.945Z,9.18
2022-12-01T15:35:58.827Z,8.95
2022-12-01T15:46:30.952Z,8.80
2022-12-01T15:51:32.995Z,9.30
2022-12-01T15:56:40.921Z,9.45
2022-12-01T16:01:44.307Z,8.93
2022-12-01T16:06:58.116Z,8.95
2022-12-01T16:12:27.397Z,9.40
2022-12-01T16:17:45.260Z,9.20
2022-12-01T16:22:51.254Z,10.88
2022-12-01T16:27:54.845Z,9.48
2022-12-01T16:33:06.105Z,10.60
2022-12-01T16:38:20.818Z,9.77
2022-12-01T16:43:25.272Z,10.48
2022-12-01T16:48:27.380Z,11.02
2022-12-01T16:53:29.410Z,10.67
2022-12-01T16:58:32.014Z,11.20
2022-12-01T17:03:34.139Z,11.80
2022-12-01T17:08:36.315Z,11.33
2022-12-01T17:13:38.496Z,11.10
2022-12-01T17:18:40.671Z,11.70
2022-12-01T17:23:42.707Z,11.87
2022-12-01T17:28:44.792Z,11.10
2022-12-01T17:33:46.891Z,12.10
2022-12-01T17:38:49.677Z,13.13
2022-12-01T17:43:52.011Z,12.57
2022-12-01T17:48:54.041Z,12.52
2022-12-01T17:53:56.055Z,12.87
2022-12-01T17:58:58.070Z,14.20
2022-12-01T18:04:00.162Z,13.80
2022-12-01T18:09:02.670Z,14.00
2022-12-01T18:14:04.823Z,14.03
2022-12-01T18:19:06.898Z,14.23
2022-12-01T18:24:10.240Z,13.73
2022-12-01T18:29:18.649Z,13.77
2022-12-01T18:34:20.830Z,15.23
2022-12-01T18:39:22.901Z,14.98
2022-12-01T18:44:25.015Z,14.70
2022-12-01T18:49:27.103Z,15.03
2022-12-01T18:54:29.422Z,16.27
2022-12-01T18:59:31.676Z,15.27
2022-12-01T19:04:33.728Z,16.37
2022-12-01T19:09:35.839Z,16.42
2022-12-01T19:14:37.921Z,15.77
2022-12-01T19:19:39.966Z,16.27
2022-12-01T19:24:44.881Z,16.33
2022-12-01T19:29:52.252Z,16.10
2022-12-01T19:34:54.662Z,15.70
2022-12-01T19:39:56.715Z,18.03
2022-12-01T19:44:59.046Z,18.87
2022-12-01T19:50:01.618Z,18.08
2022-12-01T19:55:05.850Z,18.30
2022-12-01T20:00:08.411Z,18.45
2022-12-01T20:05:10.459Z,18.55
2022-12-01T20:10:13.217Z,18.07
2022-12-01T20:15:16.311Z,18.92
2022-12-01T20:20:18.547Z,18.90
2022-12-01T20:25:20.550Z,19.73
2022-12-01T20:30:22.617Z,19.20
2022-12-01T20:35:24.692Z,20.08
2022-12-01T20:40:26.783Z,19.33
2022-12-01T20:45:28.869Z,20.27
